sensor_id;sensor_type;location;lat;lon;timestamp;temperature;humidity
1091;DHT22;534;48.704;9.122;2023-09-12T04:00:40;21.70;76.40
1091;DHT22;534;48.704;9.122;2023-09-12T04:03:06;21.70;76.40
1091;DHT22;534;48.704;9.122;2023-09-12T04:05:33;21.80;76.40
1091;DHT22;534;48.704;9.122;2023-09-12T04:08:00;21.80;76.00
1091;DHT22;534;48.704;9.122;2023-09-12T04:10:27;21.90;76.20
1091;DHT22;534;48.704;9.122;2023-09-12T04:12:53;21.90;76.10
1091;DHT22;534;48.704;9.122;2023-09-12T04:15:20;22.00;75.90
1091;DHT22;534;48.704;9.122;2023-09-12T04:17:48;21.90;75.40
1091;DHT22;534;48.704;9.122;2023-09-12T04:20:15;21.90;75.90
1091;DHT22;534;48.704;9.122;2023-09-12T04:22:42;21.90;75.60
1091;DHT22;534;48.704;9.122;2023-09-12T04:25:09;21.80;76.00
1091;DHT22;534;48.704;9.122;2023-09-12T04:27:35;21.80;75.60
1091;DHT22;534;48.704;9.122;2023-09-12T04:30:03;21.80;75.80
1091;DHT22;534;48.704;9.122;2023-09-12T04:32:30;21.50;76.80
1091;DHT22;534;48.704;9.122;2023-09-12T04:34:59;21.60;76.40
1091;DHT22;534;48.704;9.122;2023-09-12T04:37:26;21.60;76.70
1091;DHT22;534;48.704;9.122;2023-09-12T04:39:52;21.70;76.30
1091;DHT22;534;48.704;9.122;2023-09-12T04:42:19;21.80;76.20
1091;DHT22;534;48.704;9.122;2023-09-12T04:44:46;21.70;76.20
1091;DHT22;534;48.704;9.122;2023-09-12T04:47:12;21.70;76.20
1091;DHT22;534;48.704;9.122;2023-09-12T04:49:39;21.70;76.10
1091;DHT22;534;48.704;9.122;2023-09-12T04:52:07;21.60;76.40
1091;DHT22;534;48.704;9.122;2023-09-12T04:54:34;21.60;76.30
1091;DHT22;534;48.704;9.122;2023-09-12T04:57:02;21.20;77.70
1091;DHT22;534;48.704;9.122;2023-09-12T04:59:28;21.20;78.00
1091;DHT22;534;48.704;9.122;2023-09-12T05:01:55;21.10;78.00
1091;DHT22;534;48.704;9.122;2023-09-12T05:04:22;21.20;77.80
1091;DHT22;534;48.704;9.122;2023-09-12T05:06:48;21.40;77.30
1091;DHT22;534;48.704;9.122;2023-09-12T05:09:16;21.50;77.00
1091;DHT22;534;48.704;9.122;2023-09-12T05:11:43;21.50;76.80
1091;DHT22;534;48.704;9.122;2023-09-12T05:14:10;21.60;76.50
1091;DHT22;534;48.704;9.122;2023-09-12T05:16:37;21.50;76.80
1091;DHT22;534;48.704;9.122;2023-09-12T05:19:04;21.40;76.60
1091;DHT22;534;48.704;9.122;2023-09-12T05:21:31;21.40;76.80
1091;DHT22;534;48.704;9.122;2023-09-12T05:23:57;21.50;76.80
1091;DHT22;534;48.704;9.122;2023-09-12T05:26:25;21.60;76.90
1091;DHT22;534;48.704;9.122;2023-09-12T05:28:52;21.80;76.00
1091;DHT22;534;48.704;9.122;2023-09-12T05:31:19;21.90;75.70
1091;DHT22;534;48.704;9.122;2023-09-12T05:33:46;22.10;75.50
1091;DHT22;534;48.704;9.122;2023-09-12T05:36:12;22.30;75.40
1091;DHT22;534;48.704;9.122;2023-09-12T05:38:39;22.40;74.80
1091;DHT22;534;48.704;9.122;2023-09-12T05:41:06;22.50;74.80
1091;DHT22;534;48.704;9.122;2023-09-12T05:43:34;22.50;74.50
1091;DHT22;534;48.704;9.122;2023-09-12T05:46:01;22.70;74.60
1091;DHT22;534;48.704;9.122;2023-09-12T05:48:28;22.90;73.20
1091;DHT22;534;48.704;9.122;2023-09-12T05:50:55;22.90;73.60
1091;DHT22;534;48.704;9.122;2023-09-12T05:53:21;23.10;73.30
1091;DHT22;534;48.704;9.122;2023-09-12T05:55:48;23.40;72.60
1091;DHT22;534;48.704;9.122;2023-09-12T05:58:15;23.80;71.60
1091;DHT22;534;48.704;9.122;2023-09-12T06:00:43;24.20;70.70
1091;DHT22;534;48.704;9.122;2023-09-12T06:03:09;24.60;69.10
1091;DHT22;534;48.704;9.122;2023-09-12T06:05:36;24.60;68.70
1091;DHT22;534;48.704;9.122;2023-09-12T06:08:03;24.50;69.00
1091;DHT22;534;48.704;9.122;2023-09-12T06:10:30;24.50;69.70
1091;DHT22;534;48.704;9.122;2023-09-12T06:12:57;24.80;69.50
1091;DHT22;534;48.704;9.122;2023-09-12T06:15:23;25.10;68.40
1091;DHT22;534;48.704;9.122;2023-09-12T06:17:51;25.20;68.00
1091;DHT22;534;48.704;9.122;2023-09-12T06:20:19;25.10;67.80
1091;DHT22;534;48.704;9.122;2023-09-12T06:22:47;25.10;67.80
1091;DHT22;534;48.704;9.122;2023-09-12T06:25:14;25.00;68.40
1091;DHT22;534;48.704;9.122;2023-09-12T06:27:41;25.00;68.40
1091;DHT22;534;48.704;9.122;2023-09-12T06:30:09;25.10;68.30
1091;DHT22;534;48.704;9.122;2023-09-12T06:32:35;25.30;67.80
1091;DHT22;534;48.704;9.122;2023-09-12T06:35:06;25.20;66.90
1091;DHT22;534;48.704;9.122;2023-09-12T06:37:33;24.90;68.30
1091;DHT22;534;48.704;9.122;2023-09-12T06:40:00;25.00;67.90
1091;DHT22;534;48.704;9.122;2023-09-12T06:42:26;25.10;67.60
1091;DHT22;534;48.704;9.122;2023-09-12T06:44:53;25.20;67.80
1091;DHT22;534;48.704;9.122;2023-09-12T06:47:19;25.20;67.90
1091;DHT22;534;48.704;9.122;2023-09-12T06:49:46;25.00;67.90
1091;DHT22;534;48.704;9.122;2023-09-12T06:52:14;24.90;68.60
1091;DHT22;534;48.704;9.122;2023-09-12T06:54:41;24.90;68.70
1091;DHT22;534;48.704;9.122;2023-09-12T06:57:08;24.70;69.00
1091;DHT22;534;48.704;9.122;2023-09-12T06:59:35;24.60;69.50
1091;DHT22;534;48.704;9.122;2023-09-12T07:02:02;24.70;69.30
1091;DHT22;534;48.704;9.122;2023-09-12T07:04:29;24.90;69.30
1091;DHT22;534;48.704;9.122;2023-09-12T07:06:56;25.00;69.30
1091;DHT22;534;48.704;9.122;2023-09-12T07:09:25;25.20;69.30
1091;DHT22;534;48.704;9.122;2023-09-12T07:11:51;25.30;68.40
1091;DHT22;534;48.704;9.122;2023-09-12T07:14:18;25.40;68.20
1091;DHT22;534;48.704;9.122;2023-09-12T07:16:46;25.50;68.40
1091;DHT22;534;48.704;9.122;2023-09-12T07:19:12;25.70;67.90
1091;DHT22;534;48.704;9.122;2023-09-12T07:21:39;25.80;68.00
1091;DHT22;534;48.704;9.122;2023-09-12T07:24:06;26.20;68.10
1091;DHT22;534;48.704;9.122;2023-09-12T07:26:34;26.50;67.60
1091;DHT22;534;48.704;9.122;2023-09-12T07:29:01;26.90;65.60
1091;DHT22;534;48.704;9.122;2023-09-12T07:31:30;27.30;64.50
1091;DHT22;534;48.704;9.122;2023-09-12T07:33:56;27.60;63.60
1091;DHT22;534;48.704;9.122;2023-09-12T07:36:23;28.00;63.20
1091;DHT22;534;48.704;9.122;2023-09-12T07:38:50;28.10;62.70
1091;DHT22;534;48.704;9.122;2023-09-12T07:41:16;28.40;61.80
1091;DHT22;534;48.704;9.122;2023-09-12T07:43:45;28.70;61.90
1091;DHT22;534;48.704;9.122;2023-09-12T07:46:12;29.00;60.40
1091;DHT22;534;48.704;9.122;2023-09-12T07:48:39;28.80;61.20
1091;DHT22;534;48.704;9.122;2023-09-12T07:51:12;28.70;63.10
1091;DHT22;534;48.704;9.122;2023-09-12T07:53:39;28.50;63.00
1091;DHT22;534;48.704;9.122;2023-09-12T07:56:06;28.70;63.30
1091;DHT22;534;48.704;9.122;2023-09-12T07:58:34;28.70;63.40
1091;DHT22;534;48.704;9.122;2023-09-12T08:01:06;28.50;63.20
1091;DHT22;534;48.704;9.122;2023-09-12T08:03:33;28.20;63.40
1091;DHT22;534;48.704;9.122;2023-09-12T08:06:00;28.00;64.70
1091;DHT22;534;48.704;9.122;2023-09-12T08:08:27;27.90;65.70
1091;DHT22;534;48.704;9.122;2023-09-12T08:10:53;28.00;65.50
1091;DHT22;534;48.704;9.122;2023-09-12T08:13:21;27.80;66.00
1091;DHT22;534;48.704;9.122;2023-09-12T08:15:48;27.60;64.60
1091;DHT22;534;48.704;9.122;2023-09-12T08:18:16;27.40;66.40
1091;DHT22;534;48.704;9.122;2023-09-12T08:20:43;27.20;66.20
1091;DHT22;534;48.704;9.122;2023-09-12T08:23:09;27.00;66.70
1091;DHT22;534;48.704;9.122;2023-09-12T08:25:36;26.90;66.20
1091;DHT22;534;48.704;9.122;2023-09-12T08:28:03;26.80;67.70
1091;DHT22;534;48.704;9.122;2023-09-12T08:30:30;26.60;67.50
1091;DHT22;534;48.704;9.122;2023-09-12T08:32:58;26.40;68.10
1091;DHT22;534;48.704;9.122;2023-09-12T08:35:26;26.40;69.50
1091;DHT22;534;48.704;9.122;2023-09-12T08:37:53;26.30;68.90
1091;DHT22;534;48.704;9.122;2023-09-12T08:40:19;26.50;68.70
1091;DHT22;534;48.704;9.122;2023-09-12T08:42:47;26.80;68.60
1091;DHT22;534;48.704;9.122;2023-09-12T08:45:17;27.30;68.70
1091;DHT22;534;48.704;9.122;2023-09-12T08:47:45;27.60;67.00
1091;DHT22;534;48.704;9.122;2023-09-12T08:50:13;27.90;66.60
1091;DHT22;534;48.704;9.122;2023-09-12T08:52:45;27.70;67.50
1091;DHT22;534;48.704;9.122;2023-09-12T08:55:13;27.60;66.50
1091;DHT22;534;48.704;9.122;2023-09-12T08:57:41;27.50;66.90
1091;DHT22;534;48.704;9.122;2023-09-12T09:00:09;27.30;67.60
1091;DHT22;534;48.704;9.122;2023-09-12T09:02:38;27.50;67.20
1091;DHT22;534;48.704;9.122;2023-09-12T09:05:06;27.60;66.90
1091;DHT22;534;48.704;9.122;2023-09-12T09:07:35;27.30;67.50
1091;DHT22;534;48.704;9.122;2023-09-12T09:10:05;27.40;68.30
1091;DHT22;534;48.704;9.122;2023-09-12T09:12:33;27.20;68.10
1091;DHT22;534;48.704;9.122;2023-09-12T09:15:20;27.20;69.40
1091;DHT22;534;48.704;9.122;2023-09-12T09:17:47;27.30;68.50
1091;DHT22;534;48.704;9.122;2023-09-12T09:20:22;27.70;68.80
1091;DHT22;534;48.704;9.122;2023-09-12T09:22:56;27.90;67.60
1091;DHT22;534;48.704;9.122;2023-09-12T09:25:24;28.00;66.70
1091;DHT22;534;48.704;9.122;2023-09-12T09:27:51;28.00;66.80
1091;DHT22;534;48.704;9.122;2023-09-12T09:30:18;28.20;67.00
1091;DHT22;534;48.704;9.122;2023-09-12T09:32:45;28.30;66.00
1091;DHT22;534;48.704;9.122;2023-09-12T09:35:13;28.30;66.30
1091;DHT22;534;48.704;9.122;2023-09-12T09:37:41;28.30;65.30
1091;DHT22;534;48.704;9.122;2023-09-12T09:40:08;28.20;66.60
1091;DHT22;534;48.704;9.122;2023-09-12T09:42:37;28.30;66.60
1091;DHT22;534;48.704;9.122;2023-09-12T09:45:05;28.40;66.20
1091;DHT22;534;48.704;9.122;2023-09-12T09:47:32;28.50;65.00
1091;DHT22;534;48.704;9.122;2023-09-12T09:49:59;28.70;64.50
1091;DHT22;534;48.704;9.122;2023-09-12T09:52:26;28.80;63.80
1091;DHT22;534;48.704;9.122;2023-09-12T09:54:53;28.80;63.80
1091;DHT22;534;48.704;9.122;2023-09-12T09:57:19;28.90;64.10
1091;DHT22;534;48.704;9.122;2023-09-12T09:59:50;29.00;63.20
1091;DHT22;534;48.704;9.122;2023-09-12T10:02:18;29.00;61.00
1091;DHT22;534;48.704;9.122;2023-09-12T10:04:48;29.20;61.20
1091;DHT22;534;48.704;9.122;2023-09-12T10:07:17;29.30;61.30
1091;DHT22;534;48.704;9.122;2023-09-12T10:09:45;29.40;61.10
1091;DHT22;534;48.704;9.122;2023-09-12T10:12:12;29.50;60.90
1091;DHT22;534;48.704;9.122;2023-09-12T10:14:39;29.70;60.90
1091;DHT22;534;48.704;9.122;2023-09-12T10:17:09;29.50;61.30
1091;DHT22;534;48.704;9.122;2023-09-12T10:19:43;29.40;61.80
1091;DHT22;534;48.704;9.122;2023-09-12T10:22:18;29.40;62.10
1091;DHT22;534;48.704;9.122;2023-09-12T10:24:49;29.50;60.30
1091;DHT22;534;48.704;9.122;2023-09-12T10:27:18;29.50;61.50
1091;DHT22;534;48.704;9.122;2023-09-12T10:29:45;29.80;61.10
1091;DHT22;534;48.704;9.122;2023-09-12T10:32:17;29.70;60.20
1091;DHT22;534;48.704;9.122;2023-09-12T10:34:46;30.00;60.00
1091;DHT22;534;48.704;9.122;2023-09-12T10:37:16;29.90;59.90
1091;DHT22;534;48.704;9.122;2023-09-12T10:39:43;29.80;60.50
1091;DHT22;534;48.704;9.122;2023-09-12T10:42:10;29.70;60.30
1091;DHT22;534;48.704;9.122;2023-09-12T10:44:38;29.80;59.10
1091;DHT22;534;48.704;9.122;2023-09-12T10:47:05;29.70;57.90
1091;DHT22;534;48.704;9.122;2023-09-12T10:49:34;29.80;56.20
1091;DHT22;534;48.704;9.122;2023-09-12T10:52:00;29.80;56.20
1091;DHT22;534;48.704;9.122;2023-09-12T10:54:36;29.80;57.00
1091;DHT22;534;48.704;9.122;2023-09-12T10:57:04;29.80;56.30
1091;DHT22;534;48.704;9.122;2023-09-12T10:59:31;29.80;55.00
1091;DHT22;534;48.704;9.122;2023-09-12T11:02:28;29.90;56.50
1091;DHT22;534;48.704;9.122;2023-09-12T11:04:57;30.00;55.90
1091;DHT22;534;48.704;9.122;2023-09-12T11:07:32;30.00;55.70
1091;DHT22;534;48.704;9.122;2023-09-12T11:10:19;30.20;56.00
1091;DHT22;534;48.704;9.122;2023-09-12T11:12:47;30.30;56.00
1091;DHT22;534;48.704;9.122;2023-09-12T11:15:15;30.50;55.80
1091;DHT22;534;48.704;9.122;2023-09-12T11:17:43;30.60;54.20
1091;DHT22;534;48.704;9.122;2023-09-12T11:20:12;30.70;55.70
1091;DHT22;534;48.704;9.122;2023-09-12T11:22:40;30.60;54.60
1091;DHT22;534;48.704;9.122;2023-09-12T11:25:18;30.50;53.00
1091;DHT22;534;48.704;9.122;2023-09-12T11:28:01;30.80;52.90
1091;DHT22;534;48.704;9.122;2023-09-12T11:30:29;30.60;52.70
1091;DHT22;534;48.704;9.122;2023-09-12T11:32:57;30.60;53.80
1091;DHT22;534;48.704;9.122;2023-09-12T11:35:26;30.70;53.40
1091;DHT22;534;48.704;9.122;2023-09-12T11:37:54;30.80;52.70
1091;DHT22;534;48.704;9.122;2023-09-12T11:40:23;31.00;51.80
1091;DHT22;534;48.704;9.122;2023-09-12T11:42:50;31.20;51.60
1091;DHT22;534;48.704;9.122;2023-09-12T11:45:19;31.30;51.60
1091;DHT22;534;48.704;9.122;2023-09-12T11:47:47;31.50;52.10
1091;DHT22;534;48.704;9.122;2023-09-12T11:50:28;31.90;50.50
1091;DHT22;534;48.704;9.122;2023-09-12T11:53:00;32.10;50.60
1091;DHT22;534;48.704;9.122;2023-09-12T11:55:26;32.10;49.20
1091;DHT22;534;48.704;9.122;2023-09-12T11:57:55;32.00;50.60
1091;DHT22;534;48.704;9.122;2023-09-12T12:00:23;32.20;50.40
1091;DHT22;534;48.704;9.122;2023-09-12T12:02:51;32.30;49.40
1091;DHT22;534;48.704;9.122;2023-09-12T12:05:18;32.50;51.60
1091;DHT22;534;48.704;9.122;2023-09-12T12:07:47;32.60;50.90
1091;DHT22;534;48.704;9.122;2023-09-12T12:10:14;32.50;50.60
1091;DHT22;534;48.704;9.122;2023-09-12T12:12:43;32.30;51.10
1091;DHT22;534;48.704;9.122;2023-09-12T12:15:10;32.30;48.00
1091;DHT22;534;48.704;9.122;2023-09-12T12:17:37;32.30;47.90
1091;DHT22;534;48.704;9.122;2023-09-12T12:20:07;32.30;47.80
1091;DHT22;534;48.704;9.122;2023-09-12T12:22:36;32.40;47.70
1091;DHT22;534;48.704;9.122;2023-09-12T12:25:07;32.60;48.10
1091;DHT22;534;48.704;9.122;2023-09-12T12:27:36;32.80;48.80
1091;DHT22;534;48.704;9.122;2023-09-12T12:30:05;32.60;48.30
1091;DHT22;534;48.704;9.122;2023-09-12T12:32:31;32.70;47.80
1091;DHT22;534;48.704;9.122;2023-09-12T12:34:58;32.50;48.00
1091;DHT22;534;48.704;9.122;2023-09-12T12:37:28;32.50;46.90
1091;DHT22;534;48.704;9.122;2023-09-12T12:39:57;32.40;47.50
1091;DHT22;534;48.704;9.122;2023-09-12T12:42:25;32.70;47.80
1091;DHT22;534;48.704;9.122;2023-09-12T12:44:53;32.90;45.90
1091;DHT22;534;48.704;9.122;2023-09-12T12:47:21;33.10;44.60
1091;DHT22;534;48.704;9.122;2023-09-12T12:49:51;33.40;44.40
1091;DHT22;534;48.704;9.122;2023-09-12T12:52:22;33.70;43.10
1091;DHT22;534;48.704;9.122;2023-09-12T12:54:49;34.20;44.50
1091;DHT22;534;48.704;9.122;2023-09-12T12:57:18;34.50;43.00
1091;DHT22;534;48.704;9.122;2023-09-12T12:59:47;34.20;43.70
1091;DHT22;534;48.704;9.122;2023-09-12T13:02:14;34.20;42.60
1091;DHT22;534;48.704;9.122;2023-09-12T13:04:41;34.20;42.30
1091;DHT22;534;48.704;9.122;2023-09-12T13:07:08;34.10;43.70
1091;DHT22;534;48.704;9.122;2023-09-12T13:09:36;34.30;42.80
1091;DHT22;534;48.704;9.122;2023-09-12T13:12:05;34.50;43.60
1091;DHT22;534;48.704;9.122;2023-09-12T13:14:32;34.70;41.80
1091;DHT22;534;48.704;9.122;2023-09-12T13:17:00;34.90;41.70
1091;DHT22;534;48.704;9.122;2023-09-12T13:19:28;34.90;41.90
1091;DHT22;534;48.704;9.122;2023-09-12T13:21:55;34.70;43.20
1091;DHT22;534;48.704;9.122;2023-09-12T13:24:21;35.00;41.40
1091;DHT22;534;48.704;9.122;2023-09-12T13:26:48;35.20;41.80
1091;DHT22;534;48.704;9.122;2023-09-12T13:29:15;35.10;42.90
1091;DHT22;534;48.704;9.122;2023-09-12T13:31:41;35.40;44.10
1091;DHT22;534;48.704;9.122;2023-09-12T13:34:09;35.60;43.90
1091;DHT22;534;48.704;9.122;2023-09-12T13:36:36;35.50;45.30
1091;DHT22;534;48.704;9.122;2023-09-12T13:39:03;35.20;45.20
1091;DHT22;534;48.704;9.122;2023-09-12T13:41:32;34.70;45.40
1091;DHT22;534;48.704;9.122;2023-09-12T13:43:58;34.30;46.60
1091;DHT22;534;48.704;9.122;2023-09-12T13:46:25;34.10;47.60
1091;DHT22;534;48.704;9.122;2023-09-12T13:48:52;33.90;47.70
1091;DHT22;534;48.704;9.122;2023-09-12T13:51:19;33.90;47.70
1091;DHT22;534;48.704;9.122;2023-09-12T13:53:46;34.10;47.00
1091;DHT22;534;48.704;9.122;2023-09-12T13:56:13;34.30;46.70
1091;DHT22;534;48.704;9.122;2023-09-12T13:58:39;34.70;46.10
1091;DHT22;534;48.704;9.122;2023-09-12T14:01:06;35.00;46.10
1091;DHT22;534;48.704;9.122;2023-09-12T14:03:33;35.30;44.90
1091;DHT22;534;48.704;9.122;2023-09-12T14:05:59;35.50;44.40
1091;DHT22;534;48.704;9.122;2023-09-12T14:08:27;35.70;44.50
1091;DHT22;534;48.704;9.122;2023-09-12T14:10:54;35.70;44.40
1091;DHT22;534;48.704;9.122;2023-09-12T14:13:21;35.50;45.10
1091;DHT22;534;48.704;9.122;2023-09-12T14:15:47;35.60;44.80
1091;DHT22;534;48.704;9.122;2023-09-12T14:18:15;35.30;45.10
1091;DHT22;534;48.704;9.122;2023-09-12T14:20:42;35.20;45.00
1091;DHT22;534;48.704;9.122;2023-09-12T14:23:09;34.90;46.50
1091;DHT22;534;48.704;9.122;2023-09-12T14:25:37;34.50;47.40
1091;DHT22;534;48.704;9.122;2023-09-12T14:28:04;34.20;47.70
1091;DHT22;534;48.704;9.122;2023-09-12T14:30:31;33.90;48.50
1091;DHT22;534;48.704;9.122;2023-09-12T14:33:00;33.70;49.40
1091;DHT22;534;48.704;9.122;2023-09-12T14:35:27;33.50;49.40
1091;DHT22;534;48.704;9.122;2023-09-12T14:37:54;33.20;50.40
1091;DHT22;534;48.704;9.122;2023-09-12T14:40:21;33.10;51.50
1091;DHT22;534;48.704;9.122;2023-09-12T14:42:49;33.00;51.40
1091;DHT22;534;48.704;9.122;2023-09-12T14:45:16;32.80;51.50
1091;DHT22;534;48.704;9.122;2023-09-12T14:47:43;32.70;51.70
1091;DHT22;534;48.704;9.122;2023-09-12T14:50:10;32.50;51.60
1091;DHT22;534;48.704;9.122;2023-09-12T14:52:36;32.50;51.70
1091;DHT22;534;48.704;9.122;2023-09-12T14:55:04;32.40;51.90
1091;DHT22;534;48.704;9.122;2023-09-12T14:57:31;32.40;52.00
1091;DHT22;534;48.704;9.122;2023-09-12T14:59:59;32.40;53.40
1091;DHT22;534;48.704;9.122;2023-09-12T15:02:26;32.40;52.10
1091;DHT22;534;48.704;9.122;2023-09-12T15:04:57;32.60;53.00
1091;DHT22;534;48.704;9.122;2023-09-12T15:07:24;32.70;51.50
1091;DHT22;534;48.704;9.122;2023-09-12T15:09:51;32.80;51.30
1091;DHT22;534;48.704;9.122;2023-09-12T15:12:17;32.90;51.70
1091;DHT22;534;48.704;9.122;2023-09-12T15:14:44;33.20;51.50
1091;DHT22;534;48.704;9.122;2023-09-12T15:17:12;33.90;50.00
1091;DHT22;534;48.704;9.122;2023-09-12T15:19:39;34.40;49.00
1091;DHT22;534;48.704;9.122;2023-09-12T15:22:05;34.50;49.30
1091;DHT22;534;48.704;9.122;2023-09-12T15:24:32;34.10;49.10
1091;DHT22;534;48.704;9.122;2023-09-12T15:26:59;33.80;49.70
1091;DHT22;534;48.704;9.122;2023-09-12T15:29:25;33.30;50.80
1091;DHT22;534;48.704;9.122;2023-09-12T15:31:53;33.00;51.50
1091;DHT22;534;48.704;9.122;2023-09-12T15:34:22;32.80;51.50
1091;DHT22;534;48.704;9.122;2023-09-12T15:36:48;32.40;52.20
1091;DHT22;534;48.704;9.122;2023-09-12T15:39:15;32.10;53.30
1091;DHT22;534;48.704;9.122;2023-09-12T15:41:42;31.90;53.60
1091;DHT22;534;48.704;9.122;2023-09-12T15:44:08;31.70;53.70
1091;DHT22;534;48.704;9.122;2023-09-12T15:46:35;31.50;54.00
1091;DHT22;534;48.704;9.122;2023-09-12T15:49:02;31.50;54.00
1091;DHT22;534;48.704;9.122;2023-09-12T15:51:31;31.50;54.60
1091;DHT22;534;48.704;9.122;2023-09-12T15:53:58;31.50;54.90
1091;DHT22;534;48.704;9.122;2023-09-12T15:56:25;31.40;54.40
1091;DHT22;534;48.704;9.122;2023-09-12T15:58:52;31.30;54.90
1091;DHT22;534;48.704;9.122;2023-09-12T16:01:21;31.20;54.80
1091;DHT22;534;48.704;9.122;2023-09-12T16:03:47;31.20;54.90
1091;DHT22;534;48.704;9.122;2023-09-12T16:06:15;31.20;55.00
1091;DHT22;534;48.704;9.122;2023-09-12T16:08:43;31.20;54.80
1091;DHT22;534;48.704;9.122;2023-09-12T16:11:09;31.20;54.80
1091;DHT22;534;48.704;9.122;2023-09-12T16:13:39;31.00;55.10
1091;DHT22;534;48.704;9.122;2023-09-12T16:16:05;30.90;55.60
1091;DHT22;534;48.704;9.122;2023-09-12T16:18:32;30.90;55.30
1091;DHT22;534;48.704;9.122;2023-09-12T16:21:00;31.00;55.20
1091;DHT22;534;48.704;9.122;2023-09-12T16:23:27;31.00;54.80
1091;DHT22;534;48.704;9.122;2023-09-12T16:25:58;31.00;54.80
1091;DHT22;534;48.704;9.122;2023-09-12T16:28:25;30.90;54.70
1091;DHT22;534;48.704;9.122;2023-09-12T16:30:53;30.90;54.90
1091;DHT22;534;48.704;9.122;2023-09-12T16:33:21;31.00;54.90
1091;DHT22;534;48.704;9.122;2023-09-12T16:35:47;31.00;54.60
1091;DHT22;534;48.704;9.122;2023-09-12T16:38:15;31.00;54.90
1091;DHT22;534;48.704;9.122;2023-09-12T16:40:42;31.00;54.60
1091;DHT22;534;48.704;9.122;2023-09-12T16:43:49;31.10;54.90
1091;DHT22;534;48.704;9.122;2023-09-12T16:46:16;31.20;54.80
1091;DHT22;534;48.704;9.122;2023-09-12T16:48:43;30.90;56.50
1091;DHT22;534;48.704;9.122;2023-09-12T16:51:10;30.10;59.00
1091;DHT22;534;48.704;9.122;2023-09-12T16:53:37;29.50;58.90
1091;DHT22;534;48.704;9.122;2023-09-12T16:56:03;29.10;59.80
1091;DHT22;534;48.704;9.122;2023-09-12T16:58:30;28.90;60.70
1091;DHT22;534;48.704;9.122;2023-09-12T17:00:59;28.80;60.70
1091;DHT22;534;48.704;9.122;2023-09-12T17:03:25;28.60;60.60
1091;DHT22;534;48.704;9.122;2023-09-12T17:05:52;28.30;61.70
1091;DHT22;534;48.704;9.122;2023-09-12T17:08:21;28.10;61.30
1091;DHT22;534;48.704;9.122;2023-09-12T17:10:48;28.10;61.10
1091;DHT22;534;48.704;9.122;2023-09-12T17:13:14;28.20;61.50
1091;DHT22;534;48.704;9.122;2023-09-12T17:15:41;28.10;60.90
1091;DHT22;534;48.704;9.122;2023-09-12T17:18:09;28.00;61.30
1091;DHT22;534;48.704;9.122;2023-09-12T17:20:36;28.00;60.60
1091;DHT22;534;48.704;9.122;2023-09-12T17:23:03;27.90;61.50
1091;DHT22;534;48.704;9.122;2023-09-12T17:25:29;27.80;61.50
1091;DHT22;534;48.704;9.122;2023-09-12T17:27:56;27.90;61.50
1091;DHT22;534;48.704;9.122;2023-09-12T17:30:23;27.60;62.30
1091;DHT22;534;48.704;9.122;2023-09-12T17:32:50;27.50;62.80
1091;DHT22;534;48.704;9.122;2023-09-12T17:35:19;27.40;62.10
1091;DHT22;534;48.704;9.122;2023-09-12T17:37:46;27.30;62.20
1091;DHT22;534;48.704;9.122;2023-09-12T17:40:13;27.30;62.00
1091;DHT22;534;48.704;9.122;2023-09-12T17:42:40;27.20;61.30
1091;DHT22;534;48.704;9.122;2023-09-12T17:45:07;27.10;61.50
1091;DHT22;534;48.704;9.122;2023-09-12T17:47:34;27.00;61.50
1091;DHT22;534;48.704;9.122;2023-09-12T17:50:01;26.90;61.80
1091;DHT22;534;48.704;9.122;2023-09-12T17:52:30;27.00;61.60
1091;DHT22;534;48.704;9.122;2023-09-12T17:54:57;27.10;61.20
1091;DHT22;534;48.704;9.122;2023-09-12T17:57:23;27.10;61.70
1091;DHT22;534;48.704;9.122;2023-09-12T17:59:50;27.10;60.90
1091;DHT22;534;48.704;9.122;2023-09-12T18:02:20;26.90;61.20
1091;DHT22;534;48.704;9.122;2023-09-12T18:04:47;26.70;62.00
1091;DHT22;534;48.704;9.122;2023-09-12T18:07:13;26.70;61.60
1091;DHT22;534;48.704;9.122;2023-09-12T18:09:43;26.60;61.70
1091;DHT22;534;48.704;9.122;2023-09-12T18:12:11;26.70;61.80
1091;DHT22;534;48.704;9.122;2023-09-12T18:14:37;26.70;61.40
1091;DHT22;534;48.704;9.122;2023-09-12T18:17:04;26.70;61.40
1091;DHT22;534;48.704;9.122;2023-09-12T18:19:31;26.80;61.10
1091;DHT22;534;48.704;9.122;2023-09-12T18:21:57;26.80;60.90
1091;DHT22;534;48.704;9.122;2023-09-12T18:24:24;26.90;60.70
1091;DHT22;534;48.704;9.122;2023-09-12T18:26:53;26.60;61.50
1091;DHT22;534;48.704;9.122;2023-09-12T18:29:20;26.50;61.40
1091;DHT22;534;48.704;9.122;2023-09-12T18:31:48;26.40;61.70
1091;DHT22;534;48.704;9.122;2023-09-12T18:34:14;26.50;61.60
1091;DHT22;534;48.704;9.122;2023-09-12T18:36:42;26.50;61.80
1091;DHT22;534;48.704;9.122;2023-09-12T18:39:09;26.60;61.50
1091;DHT22;534;48.704;9.122;2023-09-12T18:41:37;26.60;61.50
1091;DHT22;534;48.704;9.122;2023-09-12T18:44:05;26.50;61.60
1091;DHT22;534;48.704;9.122;2023-09-12T18:46:32;26.50;61.60
1091;DHT22;534;48.704;9.122;2023-09-12T18:48:59;26.40;61.70
1091;DHT22;534;48.704;9.122;2023-09-12T18:51:25;26.40;61.60
1091;DHT22;534;48.704;9.122;2023-09-12T18:53:52;26.30;62.10
1091;DHT22;534;48.704;9.122;2023-09-12T18:56:19;26.20;62.50
1091;DHT22;534;48.704;9.122;2023-09-12T18:58:45;25.90;62.80
1091;DHT22;534;48.704;9.122;2023-09-12T19:01:14;25.90;62.70
1091;DHT22;534;48.704;9.122;2023-09-12T19:03:41;25.80;62.60
1091;DHT22;534;48.704;9.122;2023-09-12T19:06:08;25.80;62.90
1091;DHT22;534;48.704;9.122;2023-09-12T19:08:35;26.00;62.90
1091;DHT22;534;48.704;9.122;2023-09-12T19:11:05;26.00;62.40
1091;DHT22;534;48.704;9.122;2023-09-12T19:13:33;26.10;62.00
1091;DHT22;534;48.704;9.122;2023-09-12T19:16:00;26.10;61.70
1091;DHT22;534;48.704;9.122;2023-09-12T19:18:29;26.10;61.90
1091;DHT22;534;48.704;9.122;2023-09-12T19:20:55;26.10;61.80
1091;DHT22;534;48.704;9.122;2023-09-12T19:23:22;26.20;61.40
1091;DHT22;534;48.704;9.122;2023-09-12T19:25:49;26.30;61.10
1091;DHT22;534;48.704;9.122;2023-09-12T19:28:15;26.40;60.40
1091;DHT22;534;48.704;9.122;2023-09-12T19:30:43;26.20;60.80
1091;DHT22;534;48.704;9.122;2023-09-12T19:33:09;26.20;60.90
1091;DHT22;534;48.704;9.122;2023-09-12T19:35:37;26.00;61.10
1091;DHT22;534;48.704;9.122;2023-09-12T19:38:06;26.00;61.10
1091;DHT22;534;48.704;9.122;2023-09-12T19:40:33;25.90;61.10
1091;DHT22;534;48.704;9.122;2023-09-12T19:43:01;25.90;61.20
1091;DHT22;534;48.704;9.122;2023-09-12T19:45:28;25.90;61.00
1091;DHT22;534;48.704;9.122;2023-09-12T19:47:54;25.90;60.70
1091;DHT22;534;48.704;9.122;2023-09-12T19:50:22;25.80;60.80
1091;DHT22;534;48.704;9.122;2023-09-12T19:52:50;25.70;61.00
1091;DHT22;534;48.704;9.122;2023-09-12T19:55:17;25.70;60.90
1091;DHT22;534;48.704;9.122;2023-09-12T19:57:43;25.70;60.80
1091;DHT22;534;48.704;9.122;2023-09-12T20:00:12;25.80;60.80
1091;DHT22;534;48.704;9.122;2023-09-12T20:02:40;25.90;60.70
1091;DHT22;534;48.704;9.122;2023-09-12T20:05:08;25.90;60.80
1091;DHT22;534;48.704;9.122;2023-09-12T20:07:35;25.80;60.80
1091;DHT22;534;48.704;9.122;2023-09-12T20:10:03;25.90;60.70
1091;DHT22;534;48.704;9.122;2023-09-12T20:12:30;25.80;60.90
1091;DHT22;534;48.704;9.122;2023-09-12T20:14:57;25.90;60.80
1091;DHT22;534;48.704;9.122;2023-09-12T20:17:24;25.90;61.00
1091;DHT22;534;48.704;9.122;2023-09-12T20:19:51;25.80;61.30